createdAt,value
2023-01-19T00:00:33.113Z,2.25
2023-01-19T00:06:26.022Z,2.46
2023-01-19T00:12:18.714Z,2.68
2023-01-19T00:18:11.403Z,2.71
2023-01-19T00:24:04.037Z,2.62
2023-01-19T00:29:57.066Z,2.60
2023-01-19T00:35:55.189Z,2.70
2023-01-19T00:42:06.560Z,2.80
2023-01-19T00:47:59.107Z,2.89
2023-01-19T00:53:53.147Z,2.99
2023-01-19T00:59:46.076Z,3.06
2023-01-19T01:05:41.485Z,3.13
2023-01-19T01:11:34.136Z,3.19
2023-01-19T01:17:27.022Z,3.22
2023-01-19T01:23:23.168Z,3.21
2023-01-19T01:29:16.557Z,3.15
2023-01-19T01:35:10.616Z,3.11
2023-01-19T01:41:03.390Z,3.04
2023-01-19T01:46:56.887Z,3.03
2023-01-19T01:53:14.075Z,2.93
2023-01-19T01:59:09.847Z,2.88
2023-01-19T02:05:11.195Z,2.87
2023-01-19T02:11:22.978Z,2.77
2023-01-19T02:17:14.868Z,2.73
2023-01-19T02:23:15.855Z,2.75
2023-01-19T02:29:12.059Z,2.73
2023-01-19T02:35:04.905Z,2.71
2023-01-19T02:41:00.157Z,2.61
2023-01-19T02:46:54.666Z,2.63
2023-01-19T02:52:47.507Z,2.72
2023-01-19T02:58:46.653Z,2.72
2023-01-19T03:04:54.730Z,2.68
2023-01-19T03:11:08.621Z,2.64
2023-01-19T03:17:06.465Z,2.66
2023-01-19T03:23:05.545Z,2.60
2023-01-19T03:29:02.348Z,2.69
2023-01-19T03:34:55.391Z,2.63
2023-01-19T03:40:48.445Z,2.63
2023-01-19T03:46:41.208Z,2.66
2023-01-19T03:52:36.458Z,2.68
2023-01-19T03:58:28.534Z,2.62
2023-01-19T04:04:20.406Z,2.65
2023-01-19T04:10:13.010Z,2.64
2023-01-19T04:16:06.910Z,2.63
2023-01-19T04:21:59.992Z,2.67
2023-01-19T04:27:54.165Z,2.63
2023-01-19T04:33:46.616Z,2.71
2023-01-19T04:39:38.700Z,2.69
2023-01-19T04:45:32.917Z,2.74
2023-01-19T04:51:25.765Z,2.79
2023-01-19T04:57:19.155Z,2.79
2023-01-19T05:03:11.936Z,2.80
2023-01-19T05:09:05.304Z,2.77
2023-01-19T05:14:57.674Z,2.77
2023-01-19T05:20:49.604Z,2.73
2023-01-19T05:26:42.694Z,2.69
2023-01-19T05:32:34.843Z,2.68
2023-01-19T05:38:35.299Z,2.62
2023-01-19T05:44:28.855Z,2.66
2023-01-19T05:50:21.713Z,2.73
2023-01-19T05:56:13.921Z,2.68
2023-01-19T06:02:07.977Z,2.70
2023-01-19T06:08:02.283Z,2.70
2023-01-19T06:13:54.921Z,2.69
2023-01-19T06:19:48.883Z,2.57
2023-01-19T06:25:40.963Z,2.64
2023-01-19T06:31:34.842Z,2.57
2023-01-19T06:37:28.565Z,2.48
2023-01-19T06:43:22.207Z,2.54
2023-01-19T06:49:14.552Z,2.64
2023-01-19T06:55:10.871Z,2.69
2023-01-19T07:01:05.414Z,2.65
2023-01-19T07:06:59.083Z,2.66
2023-01-19T07:12:52.222Z,2.69
2023-01-19T07:18:45.499Z,2.64
2023-01-19T07:24:38.382Z,2.67
2023-01-19T07:30:33.649Z,2.65
2023-01-19T07:36:26.343Z,2.74
2023-01-19T07:42:19.521Z,2.70
2023-01-19T07:48:13.218Z,2.71
2023-01-19T07:54:08.602Z,2.78
2023-01-19T08:00:02.375Z,2.77
2023-01-19T08:06:06.327Z,2.82
2023-01-19T08:11:58.846Z,3.01
2023-01-19T08:17:59.527Z,3.13
2023-01-19T08:23:54.416Z,3.20
2023-01-19T08:29:47.164Z,3.19
2023-01-19T08:35:42.204Z,3.29
2023-01-19T08:41:34.268Z,3.31
2023-01-19T08:47:26.866Z,3.48
2023-01-19T08:53:21.268Z,3.66
2023-01-19T08:59:14.305Z,3.64
2023-01-19T09:05:07.539Z,3.71
2023-01-19T09:11:00.263Z,3.80
2023-01-19T09:16:53.356Z,4.12
2023-01-19T09:22:47.853Z,4.31
2023-01-19T09:28:40.733Z,4.61
2023-01-19T09:34:33.633Z,4.99
2023-01-19T09:40:28.387Z,5.54
2023-01-19T09:46:33.418Z,5.75
2023-01-19T09:52:26.644Z,6.14
2023-01-19T09:58:21.249Z,6.50
2023-01-19T10:04:24.624Z,6.92
2023-01-19T10:10:25.433Z,7.03
2023-01-19T10:16:41.903Z,6.98
2023-01-19T10:22:34.033Z,6.99
2023-01-19T10:28:27.745Z,6.60
2023-01-19T10:34:23.530Z,6.79
2023-01-19T10:40:25.695Z,6.91
2023-01-19T10:46:24.558Z,6.93
2023-01-19T10:52:29.236Z,6.82
2023-01-19T10:58:35.340Z,6.74
2023-01-19T11:04:30.129Z,6.68
2023-01-19T11:10:25.877Z,6.70
2023-01-19T11:16:35.066Z,6.72
2023-01-19T11:22:30.663Z,6.64
2023-01-19T11:28:31.886Z,6.45
2023-01-19T11:34:42.404Z,6.40
2023-01-19T11:40:36.137Z,6.13
2023-01-19T11:46:33.713Z,5.95
2023-01-19T11:52:41.236Z,5.91
2023-01-19T11:58:42.184Z,5.71
2023-01-19T12:04:39.703Z,5.61
2023-01-19T12:10:37.519Z,5.60
2023-01-19T12:16:33.069Z,5.70
2023-01-19T12:22:29.152Z,5.86
2023-01-19T12:28:28.312Z,6.05
2023-01-19T12:34:27.816Z,5.98
2023-01-19T12:40:19.482Z,5.56
2023-01-19T12:46:30.612Z,5.60
2023-01-19T12:52:30.054Z,5.61
2023-01-19T12:58:25.689Z,5.45
2023-01-19T13:04:33.313Z,5.46
2023-01-19T13:11:00.223Z,5.29
2023-01-19T13:17:00.902Z,5.16
2023-01-19T13:23:19.053Z,5.09
2023-01-19T13:29:25.568Z,5.05
2023-01-19T13:35:20.492Z,4.81
2023-01-19T13:41:19.415Z,4.83
2023-01-19T13:47:19.528Z,4.78
2023-01-19T13:53:20.791Z,4.63
2023-01-19T13:59:13.832Z,4.60
2023-01-19T14:05:26.264Z,4.60
2023-01-19T14:11:19.520Z,4.52
2023-01-19T14:17:31.253Z,4.48
2023-01-19T14:23:42.950Z,4.28
2023-01-19T14:29:38.292Z,3.96
2023-01-19T14:35:31.573Z,3.64
2023-01-19T14:41:37.886Z,3.28
2023-01-19T14:47:35.924Z,2.87
2023-01-19T14:53:30.067Z,2.46
2023-01-19T14:59:22.223Z,2.04
2023-01-19T15:05:15.719Z,1.61
2023-01-19T15:11:22.094Z,1.27
2023-01-19T15:17:25.761Z,0.86
2023-01-19T15:23:18.189Z,0.58
2023-01-19T15:29:22.352Z,0.34
2023-01-19T15:35:20.014Z,0.06
2023-01-19T15:41:30.963Z,-0.26
2023-01-19T15:47:24.435Z,-0.48
2023-01-19T15:53:20.252Z,-0.69
2023-01-19T15:59:12.456Z,-0.82
2023-01-19T16:05:06.246Z,-0.92
2023-01-19T16:10:58.204Z,-1.00
2023-01-19T16:16:50.566Z,-1.23
2023-01-19T16:22:43.526Z,-1.40
2023-01-19T16:28:38.071Z,-1.48
2023-01-19T16:34:30.663Z,-1.53
2023-01-19T16:40:23.543Z,-1.51
2023-01-19T16:46:31.159Z,-1.50
2023-01-19T16:52:23.418Z,-1.48
2023-01-19T16:58:15.807Z,-1.58
2023-01-19T17:04:08.751Z,-1.64
2023-01-19T17:10:02.121Z,-1.65
2023-01-19T17:16:00.803Z,-1.68
2023-01-19T17:21:53.562Z,-1.65
2023-01-19T17:27:48.834Z,-1.66
2023-01-19T17:33:44.955Z,-1.78
2023-01-19T17:39:39.619Z,-1.86
2023-01-19T17:45:36.612Z,-1.90
2023-01-19T17:51:29.373Z,-1.90
2023-01-19T17:57:21.810Z,-1.89
2023-01-19T18:03:18.683Z,-1.88
2023-01-19T18:09:11.445Z,-2.05
2023-01-19T18:15:08.844Z,-2.21
2023-01-19T18:21:04.809Z,-2.37
2023-01-19T18:26:57.872Z,-2.41
2023-01-19T18:32:52.379Z,-2.34
2023-01-19T18:38:46.004Z,-2.28
2023-01-19T18:44:38.942Z,-2.31
2023-01-19T18:50:31.921Z,-2.19
2023-01-19T18:56:25.054Z,-2.18
2023-01-19T19:02:17.604Z,-2.33
2023-01-19T19:08:10.135Z,-2.48
2023-01-19T19:14:03.318Z,-2.54
2023-01-19T19:19:55.851Z,-2.62
2023-01-19T19:25:48.912Z,-2.80
2023-01-19T19:31:43.151Z,-3.00
2023-01-19T19:37:36.281Z,-3.05
2023-01-19T19:43:28.853Z,-3.11
2023-01-19T19:49:21.712Z,-3.11
2023-01-19T19:55:14.976Z,-3.13
2023-01-19T20:01:10.939Z,-3.15
2023-01-19T20:07:03.775Z,-3.15
2023-01-19T20:12:56.055Z,-3.13
2023-01-19T20:18:54.454Z,-3.05
2023-01-19T20:24:52.675Z,-2.93
2023-01-19T20:30:46.211Z,-2.88
2023-01-19T20:36:38.935Z,-2.92
2023-01-19T20:42:30.643Z,-2.82
2023-01-19T20:48:23.343Z,-2.77
2023-01-19T20:54:19.503Z,-2.73
2023-01-19T21:00:12.669Z,-2.70
2023-01-19T21:06:05.267Z,-2.57
2023-01-19T21:11:58.040Z,-2.43
2023-01-19T21:17:50.004Z,-2.29
2023-01-19T21:23:44.773Z,-2.26
2023-01-19T21:29:37.473Z,-2.25
2023-01-19T21:35:31.088Z,-2.15
2023-01-19T21:41:25.671Z,-2.07
2023-01-19T21:47:18.343Z,-1.97
2023-01-19T21:53:11.773Z,-1.86
2023-01-19T21:59:05.342Z,-1.79
2023-01-19T22:04:58.424Z,-1.72
2023-01-19T22:10:51.126Z,-1.68
2023-01-19T22:16:43.361Z,-1.63
2023-01-19T22:22:37.363Z,-1.60
2023-01-19T22:28:30.612Z,-1.65
2023-01-19T22:34:23.451Z,-1.69
2023-01-19T22:40:16.770Z,-1.71
2023-01-19T22:46:09.644Z,-1.72
2023-01-19T22:52:02.183Z,-1.62
2023-01-19T22:57:54.390Z,-1.60
2023-01-19T23:03:47.687Z,-1.58
2023-01-19T23:09:40.462Z,-1.47
2023-01-19T23:15:34.352Z,-1.45
2023-01-19T23:21:29.722Z,-1.46
2023-01-19T23:27:23.141Z,-1.46
2023-01-19T23:33:15.733Z,-1.48
2023-01-19T23:39:13.863Z,-1.47
2023-01-19T23:45:07.389Z,-1.49
2023-01-19T23:50:59.649Z,-1.45
2023-01-19T23:56:52.656Z,-1.53
